createdAt,value
2023-12-11T00:01:58.838Z,26.25
2023-12-11T00:04:25.380Z,28.00
2023-12-11T00:06:52.086Z,30.50
2023-12-11T00:09:18.653Z,30.00
2023-12-11T00:11:45.579Z,28.25
2023-12-11T00:14:12.291Z,30.00
2023-12-11T00:16:38.877Z,36.50
2023-12-11T00:19:05.572Z,30.50
2023-12-11T00:21:32.272Z,31.75
2023-12-11T00:23:58.839Z,18.25
2023-12-11T00:26:25.438Z,29.25
2023-12-11T00:28:52.043Z,29.75
2023-12-11T00:31:18.694Z,30.00
2023-12-11T00:33:45.455Z,34.75
2023-12-11T00:36:12.491Z,32.25
2023-12-11T00:38:39.436Z,29.75
2023-12-11T00:41:08.219Z,30.00
2023-12-11T00:43:44.607Z,29.25
2023-12-11T00:46:15.992Z,28.00
2023-12-11T00:48:42.907Z,27.75
2023-12-11T00:51:19.209Z,29.00
2023-12-11T00:53:46.711Z,30.25
2023-12-11T00:56:13.644Z,25.00
2023-12-11T00:58:40.331Z,28.50
2023-12-11T01:01:08.294Z,27.50
2023-12-11T01:03:35.930Z,27.75
2023-12-11T01:06:02.686Z,29.75
2023-12-11T01:08:29.565Z,30.50
2023-12-11T01:10:56.229Z,30.25
2023-12-11T01:13:23.504Z,27.25
2023-12-11T01:15:50.330Z,27.25
2023-12-11T01:18:17.140Z,31.00
2023-12-11T01:20:43.724Z,28.00
2023-12-11T01:23:10.396Z,24.75
2023-12-11T01:25:36.952Z,25.00
2023-12-11T01:28:03.620Z,29.25
2023-12-11T01:30:30.288Z,29.25
2023-12-11T01:32:56.976Z,27.25
2023-12-11T01:35:23.611Z,26.75
2023-12-11T01:37:50.262Z,27.00
2023-12-11T01:40:16.987Z,22.00
2023-12-11T01:42:43.618Z,21.75
2023-12-11T01:45:10.533Z,23.50
2023-12-11T01:47:37.257Z,21.50
2023-12-11T01:50:04.534Z,23.25
2023-12-11T01:52:31.170Z,22.00
2023-12-11T01:54:57.702Z,20.75
2023-12-11T01:57:24.431Z,22.50
2023-12-11T01:59:51.503Z,18.25
2023-12-11T02:02:18.169Z,21.25
2023-12-11T02:04:45.541Z,21.50
2023-12-11T02:07:12.157Z,19.50
2023-12-11T02:09:39.146Z,19.25
2023-12-11T02:12:06.603Z,20.50
2023-12-11T02:14:33.343Z,20.25
2023-12-11T02:17:00.665Z,22.50
2023-12-11T02:19:27.376Z,19.75
2023-12-11T02:21:54.633Z,21.25
2023-12-11T02:24:27.028Z,24.00
2023-12-11T02:26:53.789Z,21.25
2023-12-11T02:29:21.309Z,18.25
2023-12-11T02:31:47.977Z,16.50
2023-12-11T02:34:14.672Z,16.00
2023-12-11T02:36:41.435Z,17.00
2023-12-11T02:39:07.974Z,17.00
2023-12-11T02:41:34.741Z,19.50
2023-12-11T02:44:01.447Z,18.25
2023-12-11T02:46:28.131Z,20.00
2023-12-11T02:48:54.745Z,17.75
2023-12-11T02:51:21.564Z,15.25
2023-12-11T02:53:49.732Z,15.67
2023-12-11T02:56:16.658Z,17.50
2023-12-11T02:58:45.548Z,17.33
2023-12-11T03:01:12.436Z,17.33
2023-12-11T03:03:39.530Z,19.75
2023-12-11T03:06:06.784Z,13.33
2023-12-11T03:08:33.544Z,14.33
2023-12-11T03:11:00.596Z,15.67
2023-12-11T03:13:27.177Z,16.00
2023-12-11T03:15:54.163Z,17.67
2023-12-11T03:18:20.928Z,16.67
2023-12-11T03:20:47.645Z,14.33
2023-12-11T03:23:14.366Z,14.67
2023-12-11T03:25:40.930Z,11.33
2023-12-11T03:28:07.558Z,16.00
2023-12-11T03:30:34.163Z,18.00
2023-12-11T03:33:00.746Z,11.67
2023-12-11T03:35:27.320Z,14.00
2023-12-11T03:37:53.990Z,16.00
2023-12-11T03:40:20.557Z,14.00
2023-12-11T03:42:47.540Z,11.33
2023-12-11T03:45:14.683Z,13.67
2023-12-11T03:47:41.675Z,13.67
2023-12-11T03:50:08.432Z,12.00
2023-12-11T03:52:35.036Z,14.00
2023-12-11T03:55:02.152Z,14.67
2023-12-11T03:57:29.022Z,12.00
2023-12-11T03:59:55.757Z,12.00
2023-12-11T04:02:22.922Z,15.00
2023-12-11T04:04:49.805Z,12.67
2023-12-11T04:07:17.015Z,13.00
2023-12-11T04:09:43.985Z,16.00
2023-12-11T04:12:11.767Z,9.67
2023-12-11T04:14:40.627Z,11.33
2023-12-11T04:17:07.146Z,9.33
2023-12-11T04:19:33.788Z,12.67
2023-12-11T04:22:00.464Z,12.00
2023-12-11T04:24:26.980Z,9.00
2023-12-11T04:26:53.441Z,13.33
2023-12-11T04:29:20.067Z,9.67
2023-12-11T04:31:46.630Z,9.33
2023-12-11T04:34:13.188Z,9.67
2023-12-11T04:36:42.155Z,12.00
2023-12-11T04:39:08.634Z,10.00
2023-12-11T04:41:35.186Z,10.00
2023-12-11T04:44:01.822Z,10.00
2023-12-11T04:46:28.317Z,10.00
2023-12-11T04:48:54.956Z,9.00
2023-12-11T04:51:21.668Z,8.00
2023-12-11T04:53:48.148Z,12.00
2023-12-11T04:56:14.594Z,9.00
2023-12-11T04:58:41.224Z,10.00
2023-12-11T05:01:07.833Z,10.00
2023-12-11T05:03:34.563Z,7.00
2023-12-11T05:06:01.118Z,10.00
2023-12-11T05:08:30.215Z,14.00
2023-12-11T05:10:57.357Z,13.00
2023-12-11T05:13:23.891Z,15.33
2023-12-11T05:15:50.498Z,15.67
2023-12-11T05:18:17.170Z,15.67
2023-12-11T05:20:43.644Z,13.00
2023-12-11T05:23:10.182Z,12.00
2023-12-11T05:25:36.662Z,8.33
2023-12-11T05:28:03.253Z,8.67
2023-12-11T05:30:29.926Z,10.33
2023-12-11T05:32:56.522Z,10.00
2023-12-11T05:35:23.199Z,11.33
2023-12-11T05:37:49.799Z,11.33
2023-12-11T05:40:22.544Z,16.00
2023-12-11T05:42:50.908Z,11.67
2023-12-11T05:45:17.448Z,14.67
2023-12-11T05:47:44.183Z,13.33
2023-12-11T05:50:11.102Z,15.67
2023-12-11T05:52:37.979Z,13.00
2023-12-11T05:55:04.939Z,13.33
2023-12-11T05:57:31.748Z,14.00
2023-12-11T05:59:58.391Z,10.67
2023-12-11T06:02:26.263Z,12.67
2023-12-11T06:04:53.069Z,14.33
2023-12-11T06:07:19.617Z,13.33
2023-12-11T06:09:46.185Z,13.33
2023-12-11T06:12:12.803Z,13.00
2023-12-11T06:14:45.226Z,16.33
2023-12-11T06:17:13.697Z,16.50
2023-12-11T06:19:46.073Z,19.67
2023-12-11T06:22:12.894Z,14.33
2023-12-11T06:24:40.951Z,19.00
2023-12-11T06:27:08.107Z,17.25
2023-12-11T06:29:34.934Z,16.00
2023-12-11T06:32:01.490Z,14.67
2023-12-11T06:34:28.022Z,16.00
2023-12-11T06:36:54.692Z,16.67
2023-12-11T06:39:21.759Z,17.33
2023-12-11T06:41:48.306Z,18.33
2023-12-11T06:44:14.974Z,16.00
2023-12-11T06:46:41.698Z,14.00
2023-12-11T06:49:08.318Z,19.50
2023-12-11T06:51:36.404Z,18.50
2023-12-11T06:54:02.957Z,19.00
2023-12-11T06:56:33.063Z,20.00
2023-12-11T06:58:59.711Z,17.25
2023-12-11T07:01:33.182Z,23.25
2023-12-11T07:04:00.097Z,24.00
2023-12-11T07:06:27.266Z,30.25
2023-12-11T07:08:54.189Z,39.75
2023-12-11T07:11:20.806Z,24.00
2023-12-11T07:13:47.468Z,17.00
2023-12-11T07:16:14.309Z,21.00
2023-12-11T07:18:41.386Z,15.67
2023-12-11T07:21:10.492Z,18.00
2023-12-11T07:23:37.288Z,17.33
2023-12-11T07:26:08.747Z,21.33
2023-12-11T07:28:39.100Z,19.33
2023-12-11T07:31:07.027Z,23.33
2023-12-11T07:33:35.164Z,21.00
2023-12-11T07:36:02.358Z,23.00
2023-12-11T07:38:29.029Z,18.00
2023-12-11T07:40:56.690Z,20.00
2023-12-11T07:43:23.485Z,19.67
2023-12-11T07:45:50.831Z,25.33
2023-12-11T07:48:17.552Z,22.00
2023-12-11T07:50:44.207Z,16.00
2023-12-11T07:53:10.881Z,16.00
2023-12-11T07:55:37.606Z,21.33
2023-12-11T07:58:04.851Z,30.00
2023-12-11T08:00:32.380Z,17.50
2023-12-11T08:02:59.192Z,20.00
2023-12-11T08:05:26.171Z,13.25
2023-12-11T08:07:52.827Z,14.50
2023-12-11T08:10:19.545Z,19.67
2023-12-11T08:12:49.729Z,9.00
2023-12-11T08:15:16.404Z,14.75
2023-12-11T08:17:43.024Z,12.00
2023-12-11T08:20:13.298Z,13.25
2023-12-11T08:22:40.433Z,16.25
2023-12-11T08:25:08.113Z,8.25
2023-12-11T08:27:34.753Z,10.25
2023-12-11T08:30:01.715Z,10.00
2023-12-11T08:32:28.525Z,13.25
2023-12-11T08:34:55.194Z,17.00
2023-12-11T08:37:21.935Z,15.25
2023-12-11T08:39:48.622Z,13.25
2023-12-11T08:42:15.319Z,13.50
2023-12-11T08:44:41.945Z,11.75
2023-12-11T08:47:08.577Z,17.75
2023-12-11T08:49:35.318Z,22.25
2023-12-11T08:52:03.383Z,17.25
2023-12-11T08:54:30.083Z,13.75
2023-12-11T08:56:58.639Z,6.25
2023-12-11T08:59:25.395Z,11.50
2023-12-11T09:01:52.095Z,6.25
2023-12-11T09:04:18.806Z,11.00
2023-12-11T09:06:46.202Z,10.00
2023-12-11T09:09:15.036Z,9.00
2023-12-11T09:11:41.802Z,8.00
2023-12-11T09:14:08.330Z,9.25
2023-12-11T09:16:34.888Z,10.00
2023-12-11T09:19:01.511Z,11.00
2023-12-11T09:21:28.223Z,9.25
2023-12-11T09:23:54.836Z,9.75
2023-12-11T09:26:21.637Z,9.75
2023-12-11T09:28:52.140Z,10.00
2023-12-11T09:31:20.384Z,10.50
2023-12-11T09:33:47.251Z,14.75
2023-12-11T09:36:13.977Z,13.00
2023-12-11T09:38:40.695Z,12.50
2023-12-11T09:41:08.752Z,11.25
2023-12-11T09:43:36.409Z,6.75
2023-12-11T09:46:06.449Z,13.00
2023-12-11T09:48:33.411Z,9.25
2023-12-11T09:51:01.841Z,11.00
2023-12-11T09:53:32.202Z,9.00
2023-12-11T09:56:00.362Z,8.25
2023-12-11T09:58:27.451Z,7.75
2023-12-11T10:00:54.549Z,6.75
2023-12-11T10:03:21.284Z,7.00
2023-12-11T10:05:48.600Z,6.25
2023-12-11T10:08:17.405Z,8.75
2023-12-11T10:10:44.011Z,8.00
2023-12-11T10:13:13.516Z,7.75
2023-12-11T10:15:53.459Z,10.00
2023-12-11T10:18:20.483Z,8.00
2023-12-11T10:21:01.113Z,8.00
2023-12-11T10:23:28.541Z,3.50
2023-12-11T10:26:08.088Z,8.00
2023-12-11T10:28:36.125Z,6.25
2023-12-11T10:31:04.484Z,6.00
2023-12-11T10:33:33.412Z,7.25
2023-12-11T10:36:30.754Z,6.25
2023-12-11T10:39:08.786Z,8.00
2023-12-11T10:41:35.887Z,7.00
2023-12-11T10:44:12.959Z,7.25
2023-12-11T10:46:47.573Z,5.50
2023-12-11T10:49:22.862Z,6.00
2023-12-11T10:54:59.111Z,6.25
2023-12-11T11:00:43.536Z,5.50
2023-12-11T11:03:13.097Z,7.00
2023-12-11T11:05:42.667Z,7.00
2023-12-11T11:08:20.517Z,8.00
2023-12-11T11:11:08.325Z,6.00
2023-12-11T11:13:40.022Z,6.50
2023-12-11T11:16:09.012Z,5.50
2023-12-11T11:19:03.208Z,7.00
2023-12-11T11:21:34.526Z,6.25
2023-12-11T11:24:04.282Z,8.00
2023-12-11T11:26:37.906Z,6.00
2023-12-11T11:29:09.757Z,7.00
2023-12-11T11:32:02.054Z,9.50
2023-12-11T11:34:58.855Z,5.50
2023-12-11T11:37:50.174Z,7.00
2023-12-11T11:40:47.856Z,7.00
2023-12-11T11:43:32.116Z,8.25
2023-12-11T11:46:04.068Z,6.25
2023-12-11T11:54:21.748Z,6.50
2023-12-11T11:57:25.031Z,6.00
2023-12-11T12:00:13.867Z,7.25
2023-12-11T12:02:49.577Z,8.25
2023-12-11T12:08:49.579Z,11.00
2023-12-11T12:11:24.533Z,8.25
2023-12-11T12:13:52.253Z,7.50
2023-12-11T12:16:30.650Z,7.50
2023-12-11T12:19:00.217Z,8.00
2023-12-11T12:21:34.172Z,9.75
2023-12-11T12:24:11.325Z,7.75
2023-12-11T12:26:41.494Z,7.25
2023-12-11T12:32:18.119Z,8.75
2023-12-11T12:34:47.591Z,7.75
2023-12-11T12:37:19.007Z,6.25
2023-12-11T12:39:46.781Z,8.00
2023-12-11T12:42:14.387Z,8.00
2023-12-11T12:45:02.089Z,8.00
2023-12-11T12:47:31.737Z,7.25
2023-12-11T12:50:03.913Z,8.25
2023-12-11T12:52:32.577Z,7.00
2023-12-11T12:57:51.957Z,7.50
2023-12-11T13:00:21.862Z,6.00
2023-12-11T13:05:45.427Z,8.50
2023-12-11T13:08:27.817Z,8.00
2023-12-11T13:11:11.040Z,7.00
2023-12-11T13:13:45.816Z,6.25
2023-12-11T13:16:17.605Z,6.00
2023-12-11T13:19:11.874Z,6.25
2023-12-11T13:21:39.680Z,7.25
2023-12-11T13:24:26.856Z,7.50
2023-12-11T13:38:40.662Z,9.50
2023-12-11T13:41:20.099Z,10.50
2023-12-11T13:43:53.272Z,13.00
2023-12-11T13:46:42.726Z,13.25
2023-12-11T13:49:18.073Z,6.00
2023-12-11T13:51:58.051Z,4.00
2023-12-11T13:54:31.313Z,13.25
2023-12-11T13:56:58.845Z,12.75
2023-12-11T13:59:30.736Z,10.00
2023-12-11T14:02:03.477Z,14.25
2023-12-11T14:04:33.574Z,10.50
2023-12-11T14:13:05.831Z,13.25
2023-12-11T14:15:43.129Z,14.75
2023-12-11T14:18:17.288Z,12.75
2023-12-11T14:32:09.374Z,15.00
2023-12-11T14:34:36.044Z,17.75
2023-12-11T14:37:04.848Z,7.75
2023-12-11T14:39:32.419Z,14.75
2023-12-11T14:41:59.164Z,22.25
2023-12-11T14:44:25.689Z,17.25
2023-12-11T14:46:52.464Z,12.00
2023-12-11T14:49:21.169Z,11.50
2023-12-11T14:51:48.363Z,16.75
2023-12-11T14:54:16.835Z,18.50
2023-12-11T14:56:49.752Z,19.25
2023-12-11T14:59:17.970Z,27.67
2023-12-11T15:01:44.982Z,18.33
2023-12-11T15:04:14.596Z,27.50
2023-12-11T15:06:44.198Z,19.25
2023-12-11T15:09:15.061Z,15.50
2023-12-11T15:11:41.989Z,20.00
2023-12-11T15:14:09.692Z,16.00
2023-12-11T15:16:46.038Z,14.00
2023-12-11T15:19:12.804Z,15.00
2023-12-11T15:21:39.269Z,17.25
2023-12-11T15:24:06.960Z,16.00
2023-12-11T15:26:33.623Z,19.00
2023-12-11T15:29:04.084Z,18.25
2023-12-11T15:31:30.717Z,22.25
2023-12-11T15:33:57.379Z,22.00
2023-12-11T15:36:24.178Z,25.33
2023-12-11T15:38:50.885Z,13.67
2023-12-11T15:41:18.304Z,24.00
2023-12-11T15:43:48.395Z,22.00
2023-12-11T15:46:16.732Z,20.50
2023-12-11T15:48:47.850Z,18.33
2023-12-11T15:51:20.515Z,19.75
2023-12-11T15:53:47.396Z,18.25
2023-12-11T15:56:16.751Z,20.25
2023-12-11T15:58:43.660Z,23.33
2023-12-11T16:01:11.585Z,25.33
2023-12-11T16:03:41.923Z,16.00
2023-12-11T16:06:08.862Z,17.00
2023-12-11T16:08:35.566Z,17.00
2023-12-11T16:11:02.111Z,19.00
2023-12-11T16:13:28.705Z,20.33
2023-12-11T16:15:56.570Z,17.33
2023-12-11T16:18:23.471Z,21.67
2023-12-11T16:20:50.043Z,22.00
2023-12-11T16:23:16.830Z,15.50
2023-12-11T16:25:51.100Z,19.33
2023-12-11T16:28:25.854Z,16.67
2023-12-11T16:30:52.562Z,16.00
2023-12-11T16:33:19.523Z,19.00
2023-12-11T16:35:46.159Z,18.00
2023-12-11T16:38:12.739Z,22.33
2023-12-11T16:40:41.012Z,17.33
2023-12-11T16:43:10.301Z,19.67
2023-12-11T16:45:37.534Z,18.67
2023-12-11T16:48:04.550Z,20.67
2023-12-11T16:50:31.433Z,17.00
2023-12-11T16:52:58.107Z,22.33
2023-12-11T16:55:24.662Z,14.67
2023-12-11T16:57:51.794Z,22.00
2023-12-11T17:00:18.664Z,21.67
2023-12-11T17:02:45.247Z,20.00
2023-12-11T17:05:11.920Z,22.00
2023-12-11T17:07:38.509Z,20.67
2023-12-11T17:10:05.483Z,14.67
2023-12-11T17:12:32.538Z,19.00
2023-12-11T17:14:59.400Z,19.67
2023-12-11T17:17:27.204Z,19.00
2023-12-11T17:19:54.275Z,22.00
2023-12-11T17:22:22.176Z,17.00
2023-12-11T17:24:49.518Z,23.33
2023-12-11T17:27:16.316Z,26.00
2023-12-11T17:29:43.023Z,22.33
2023-12-11T17:32:09.636Z,16.00
2023-12-11T17:34:36.435Z,18.33
2023-12-11T17:37:04.068Z,20.67
2023-12-11T17:39:30.761Z,18.67
2023-12-11T17:41:57.387Z,20.33
2023-12-11T17:44:23.867Z,25.67
2023-12-11T17:46:50.884Z,22.00
2023-12-11T17:49:17.859Z,29.00
2023-12-11T17:51:45.210Z,30.75
2023-12-11T17:54:11.985Z,31.75
2023-12-11T17:56:38.672Z,36.50
2023-12-11T17:59:07.065Z,36.00
2023-12-11T18:01:34.316Z,39.00
2023-12-11T18:04:01.477Z,37.00
2023-12-11T18:06:28.482Z,33.25
2023-12-11T18:08:55.034Z,32.00
2023-12-11T18:11:21.634Z,36.25
2023-12-11T18:13:48.244Z,32.75
2023-12-11T18:16:15.080Z,36.25
2023-12-11T18:18:41.922Z,30.00
2023-12-11T18:21:08.572Z,30.75
2023-12-11T18:23:35.044Z,30.75
2023-12-11T18:26:01.531Z,36.50
2023-12-11T18:28:30.492Z,32.00
2023-12-11T18:30:57.235Z,35.00
2023-12-11T18:33:23.895Z,29.75
2023-12-11T18:35:51.035Z,35.75
2023-12-11T18:38:17.728Z,37.25
2023-12-11T18:40:44.304Z,38.00
2023-12-11T18:43:10.997Z,36.00
2023-12-11T18:45:39.660Z,39.00
2023-12-11T18:48:06.204Z,40.25
2023-12-11T18:50:32.790Z,38.00
2023-12-11T18:52:59.461Z,38.00
2023-12-11T18:55:26.330Z,35.75
2023-12-11T18:57:53.421Z,37.75
2023-12-11T19:00:20.966Z,31.00
2023-12-11T19:02:49.501Z,32.00
2023-12-11T19:05:17.718Z,31.50
2023-12-11T19:07:44.486Z,30.75
2023-12-11T19:10:13.764Z,28.00
2023-12-11T19:12:40.419Z,27.50
2023-12-11T19:15:07.341Z,26.50
2023-12-11T19:17:34.773Z,24.00
2023-12-11T19:20:01.492Z,30.50
2023-12-11T19:22:28.109Z,22.25
2023-12-11T19:24:54.807Z,24.75
2023-12-11T19:27:25.523Z,24.50
2023-12-11T19:29:52.160Z,21.00
2023-12-11T19:32:20.992Z,22.25
2023-12-11T19:34:47.871Z,25.50
2023-12-11T19:37:14.588Z,24.50
2023-12-11T19:39:42.036Z,27.50
2023-12-11T19:42:08.722Z,28.25
2023-12-11T19:44:41.291Z,27.75
2023-12-11T19:47:08.494Z,30.00
2023-12-11T19:49:36.074Z,32.00
2023-12-11T19:52:02.807Z,32.50
2023-12-11T19:54:29.715Z,33.00
2023-12-11T19:56:56.289Z,33.00
2023-12-11T19:59:22.760Z,34.25
2023-12-11T20:01:51.504Z,33.50
2023-12-11T20:04:20.666Z,31.50
2023-12-11T20:06:47.385Z,30.25
2023-12-11T20:09:14.367Z,32.50
2023-12-11T20:11:42.358Z,35.25
2023-12-11T20:14:09.043Z,29.00
2023-12-11T20:16:35.795Z,33.00
2023-12-11T20:19:02.558Z,31.00
2023-12-11T20:21:29.242Z,28.00
2023-12-11T20:23:55.860Z,25.50
2023-12-11T20:26:23.773Z,26.00
2023-12-11T20:28:50.418Z,20.25
2023-12-11T20:31:18.075Z,27.50
2023-12-11T20:33:44.964Z,15.00
2023-12-11T20:36:15.481Z,22.25
2023-12-11T20:38:42.250Z,20.75
2023-12-11T20:41:17.165Z,27.25
2023-12-11T20:43:43.645Z,23.25
2023-12-11T20:46:10.320Z,20.00
2023-12-11T20:48:37.059Z,21.25
2023-12-11T20:51:07.128Z,23.00
2023-12-11T20:53:35.230Z,23.00
2023-12-11T20:56:01.947Z,20.67
2023-12-11T20:58:28.900Z,22.33
2023-12-11T21:00:55.531Z,19.75
2023-12-11T21:03:22.155Z,20.00
2023-12-11T21:05:48.820Z,8.33
2023-12-11T21:08:15.299Z,21.00
2023-12-11T21:10:43.502Z,21.00
2023-12-11T21:13:11.627Z,22.33
2023-12-11T21:15:39.791Z,18.00
2023-12-11T21:18:07.651Z,18.00
2023-12-11T21:20:34.861Z,18.75
2023-12-11T21:23:01.766Z,17.67
2023-12-11T21:25:28.458Z,14.00
2023-12-11T21:27:55.147Z,17.00
2023-12-11T21:30:21.963Z,17.00
2023-12-11T21:32:49.637Z,15.00
2023-12-11T21:35:19.301Z,18.00
2023-12-11T21:37:45.940Z,9.50
2023-12-11T21:40:15.766Z,14.00
2023-12-11T21:42:43.737Z,15.75
2023-12-11T21:45:11.524Z,11.00
2023-12-11T21:47:38.740Z,11.00
2023-12-11T21:50:06.086Z,11.33
2023-12-11T21:52:32.769Z,8.25
2023-12-11T21:54:59.252Z,13.00
2023-12-11T21:57:26.073Z,18.00
2023-12-11T21:59:52.651Z,18.00
2023-12-11T22:02:19.163Z,17.67
2023-12-11T22:04:45.859Z,17.00
2023-12-11T22:07:14.946Z,20.67
2023-12-11T22:09:43.331Z,31.00
2023-12-11T22:12:09.858Z,28.00
2023-12-11T22:14:38.914Z,29.00
2023-12-11T22:17:05.531Z,22.00
2023-12-11T22:19:32.581Z,22.50
2023-12-11T22:21:59.326Z,31.00
2023-12-11T22:24:25.929Z,30.50
2023-12-11T22:26:52.933Z,28.75
2023-12-11T22:29:19.918Z,25.25
2023-12-11T22:31:48.332Z,27.50
2023-12-11T22:34:15.175Z,23.67
2023-12-11T22:36:42.078Z,26.00
2023-12-11T22:39:10.014Z,30.50
2023-12-11T22:41:36.833Z,26.75
2023-12-11T22:44:03.761Z,23.67
2023-12-11T22:46:30.801Z,19.33
2023-12-11T22:48:57.841Z,21.67
2023-12-11T22:51:24.563Z,19.67
2023-12-11T22:53:51.210Z,19.00
2023-12-11T22:56:18.400Z,22.00
2023-12-11T22:58:45.062Z,24.33
2023-12-11T23:01:11.710Z,20.67
2023-12-11T23:03:38.548Z,18.00
2023-12-11T23:06:05.458Z,23.25
2023-12-11T23:08:32.019Z,13.75
2023-12-11T23:10:58.516Z,27.50
2023-12-11T23:13:32.344Z,28.00
2023-12-11T23:15:59.375Z,21.00
2023-12-11T23:18:27.265Z,26.50
2023-12-11T23:20:54.563Z,23.50
2023-12-11T23:23:21.049Z,27.25
2023-12-11T23:25:54.625Z,23.00
2023-12-11T23:28:25.425Z,21.25
2023-12-11T23:30:52.153Z,26.00
2023-12-11T23:33:18.804Z,25.00
2023-12-11T23:35:45.456Z,21.00
2023-12-11T23:38:11.956Z,23.67
2023-12-11T23:40:38.636Z,22.00
2023-12-11T23:43:05.189Z,18.00
2023-12-11T23:45:31.795Z,19.33
2023-12-11T23:47:58.380Z,20.00
2023-12-11T23:50:24.983Z,20.75
2023-12-11T23:52:51.464Z,19.33
2023-12-11T23:55:18.558Z,18.67
2023-12-11T23:57:45.030Z,18.67
